Accueil
METAR-TAF:

METAR-TAF

Aéroports :

Aéroport international O'Hare de Chicago

Chicago, Illinois, États-Unis

latitude: 41-58-47N, longitude: 087-54-16W, altitude: 203 m

Observation

Le bulletin a été fait il y a 38 minutes, à 04:51 UTC
Vent 4 kt de ouest
Température -10°C
Humidité 56%
Pression 1038 hPa
Visibilité: 16.1 km
Ciel clair

METAR: KORD 210451Z 26004KT 10SM CLR M10/M17 A3066 RMK AO2 SLP397 T11001172

Heure: 23:29 (05:29 UTC)

Prévision

Le bulletin a été fait il y a 2 heures et 37 minutes, à 02:52 UTC
Prévision valable du 21 à 03 UTC au 22 à 06 UTC
Vent 6 kt de ouest
Visibilité: 10 km
Ciel clair
A partir de 21 à 1500 UTC
Vent 10 kt de sud-ouest
Visibilité: 10 km
Ciel clair
A partir de 21 à 1700 UTC
Vent 13 kt de sud-ouest avec des rafales jusqu'à 22 kt
Visibilité: 10 km
Ciel clair

TAF: KORD 210252Z 2103/2206 27006KT P6SM SKC FM211500 23010KT P6SM SKC FM211700 22013G22KT P6SM SKC

Observations et prévisions météorologiques de plus de 4000 aéroports (messages METAR et TAF).

Les stations disponibles sont représentées par des disques jaunes et rouges sur la carte.

Passer la souris dessus pour voir le nom de la station.

Cliquer dessus pour voir les observations et prévisions météorologiques.

Pour changer de carte: cliquez sur les boutons verts avec une croix noire pour zoomer, sur le bouton vert avec un tiret pour effectuer un zoom arrière, ou sur les flèches vertes pour les cartes adjacentes.


METAR-TAF: